createdAt,value
2019-03-24T00:02:30.566Z,51.90
2019-03-24T00:05:33.572Z,51.90
2019-03-24T00:08:05.638Z,51.90
2019-03-24T00:10:37.791Z,51.90
2019-03-24T00:13:10.252Z,51.90
2019-03-24T00:15:42.371Z,52.00
2019-03-24T00:18:14.369Z,52.30
2019-03-24T00:20:46.529Z,52.30
2019-03-24T00:23:18.557Z,52.10
2019-03-24T00:25:50.632Z,52.10
2019-03-24T00:28:22.713Z,52.20
2019-03-24T00:30:54.780Z,52.30
2019-03-24T00:33:27.116Z,52.50
2019-03-24T00:35:59.146Z,52.40
2019-03-24T00:38:32.204Z,52.30
2019-03-24T00:41:04.296Z,52.50
2019-03-24T00:43:36.242Z,52.70
2019-03-24T00:46:08.260Z,52.60
2019-03-24T00:48:40.344Z,52.50
2019-03-24T00:51:12.415Z,52.70
2019-03-24T00:53:44.328Z,52.90
2019-03-24T00:56:16.240Z,52.80
2019-03-24T00:58:48.529Z,52.90
2019-03-24T01:01:20.507Z,52.90
2019-03-24T01:03:52.641Z,53.20
2019-03-24T01:06:24.709Z,53.10
2019-03-24T01:08:58.255Z,53.30
2019-03-24T01:11:31.442Z,53.40
2019-03-24T01:14:04.809Z,53.20
2019-03-24T01:16:37.470Z,53.20
2019-03-24T01:19:10.268Z,53.20
2019-03-24T01:21:43.282Z,53.30
2019-03-24T01:24:15.410Z,53.40
2019-03-24T01:26:47.476Z,53.30
2019-03-24T01:29:19.586Z,53.40
2019-03-24T01:31:51.788Z,53.20
2019-03-24T01:34:23.923Z,53.30
2019-03-24T01:36:55.862Z,53.50
2019-03-24T01:39:27.866Z,53.50
2019-03-24T01:42:00.081Z,53.30
2019-03-24T01:44:32.182Z,53.40
2019-03-24T01:47:04.398Z,53.50
2019-03-24T01:49:36.462Z,53.60
2019-03-24T01:52:09.704Z,53.50
2019-03-24T01:54:42.660Z,53.90
2019-03-24T01:57:17.077Z,53.80
2019-03-24T01:59:49.276Z,53.70
2019-03-24T02:02:21.309Z,53.60
2019-03-24T02:04:53.340Z,53.70
2019-03-24T02:07:26.232Z,53.70
2019-03-24T02:09:58.192Z,53.80
2019-03-24T02:12:30.307Z,53.70
2019-03-24T02:15:03.421Z,53.70
2019-03-24T02:17:35.612Z,53.50
2019-03-24T02:20:08.085Z,53.40
2019-03-24T02:22:39.953Z,53.30
2019-03-24T02:25:12.135Z,53.30
2019-03-24T02:27:44.103Z,53.20
2019-03-24T02:30:16.134Z,53.10
2019-03-24T02:32:48.127Z,53.00
2019-03-24T02:35:20.224Z,53.00
2019-03-24T02:37:52.320Z,52.90
2019-03-24T02:40:25.361Z,52.90
2019-03-24T02:42:57.319Z,52.80
2019-03-24T02:45:29.272Z,52.90
2019-03-24T02:48:01.288Z,52.80
2019-03-24T02:50:33.305Z,52.90
2019-03-24T02:53:05.308Z,52.90
2019-03-24T02:55:37.278Z,53.00
2019-03-24T02:58:10.226Z,53.00
2019-03-24T03:00:42.238Z,53.00
2019-03-24T03:03:14.322Z,53.10
2019-03-24T03:05:46.366Z,53.10
2019-03-24T03:08:18.357Z,53.20
2019-03-24T03:10:50.407Z,53.10
2019-03-24T03:13:22.260Z,53.20
2019-03-24T03:15:56.377Z,53.30
2019-03-24T03:18:30.656Z,53.20
2019-03-24T03:21:02.620Z,53.20
2019-03-24T03:23:34.786Z,53.30
2019-03-24T03:26:06.838Z,53.30
2019-03-24T03:28:38.744Z,53.40
2019-03-24T03:31:10.677Z,53.40
2019-03-24T03:33:42.623Z,53.50
2019-03-24T03:36:14.560Z,53.50
2019-03-24T03:38:46.582Z,53.60
2019-03-24T03:41:18.823Z,53.60
2019-03-24T03:43:50.707Z,53.80
2019-03-24T03:46:22.911Z,53.80
2019-03-24T03:48:54.822Z,53.80
2019-03-24T03:51:26.777Z,53.80
2019-03-24T03:53:59.184Z,53.90
2019-03-24T03:56:31.436Z,54.00
2019-03-24T03:59:03.548Z,54.00
2019-03-24T04:01:35.488Z,54.00
2019-03-24T04:04:07.398Z,54.00
2019-03-24T04:06:39.384Z,54.10
2019-03-24T04:09:11.358Z,54.20
2019-03-24T04:11:43.371Z,54.20
2019-03-24T04:14:15.303Z,54.20
2019-03-24T04:16:47.314Z,54.20
2019-03-24T04:19:20.046Z,54.20
2019-03-24T04:21:52.007Z,54.20
2019-03-24T04:24:23.970Z,54.20
2019-03-24T04:26:55.832Z,54.20
2019-03-24T04:29:27.831Z,54.10
2019-03-24T04:31:59.858Z,54.10
2019-03-24T04:34:31.734Z,54.10
2019-03-24T04:37:03.751Z,54.20
2019-03-24T04:39:35.709Z,54.10
2019-03-24T04:42:07.674Z,54.10
2019-03-24T04:44:39.688Z,54.00
2019-03-24T04:47:16.561Z,54.00
2019-03-24T04:49:45.292Z,54.00
2019-03-24T04:52:17.262Z,54.00
2019-03-24T04:54:49.290Z,54.20
2019-03-24T04:57:21.260Z,54.10
2019-03-24T04:59:53.253Z,54.20
2019-03-24T05:02:25.224Z,54.20
2019-03-24T05:04:57.133Z,54.20
2019-03-24T05:07:29.529Z,54.30
2019-03-24T05:10:02.497Z,54.20
2019-03-24T05:12:34.508Z,54.20
2019-03-24T05:15:06.545Z,54.20
2019-03-24T05:17:38.515Z,54.20
2019-03-24T05:20:10.416Z,54.30
2019-03-24T05:22:42.430Z,54.50
2019-03-24T05:25:14.445Z,54.50
2019-03-24T05:27:46.487Z,54.60
2019-03-24T05:30:18.409Z,54.60
2019-03-24T05:32:50.393Z,54.70
2019-03-24T05:35:22.300Z,54.70
2019-03-24T05:37:54.472Z,54.60
2019-03-24T05:40:26.441Z,54.60
2019-03-24T05:42:58.493Z,54.50
2019-03-24T05:45:31.380Z,54.50
2019-03-24T05:48:03.621Z,54.60
2019-03-24T05:50:35.575Z,54.50
2019-03-24T05:53:07.596Z,54.50
2019-03-24T05:55:39.654Z,54.60
2019-03-24T05:58:11.564Z,54.60
2019-03-24T06:00:43.387Z,54.60
2019-03-24T06:03:15.353Z,54.70
2019-03-24T06:05:48.475Z,54.60
2019-03-24T06:08:20.592Z,54.60
2019-03-24T06:10:52.585Z,54.60
2019-03-24T06:13:24.533Z,54.70
2019-03-24T06:15:56.525Z,54.70
2019-03-24T06:18:28.498Z,54.80
2019-03-24T06:21:00.548Z,54.90
2019-03-24T06:23:32.597Z,54.90
2019-03-24T06:26:04.643Z,54.90
2019-03-24T06:28:36.744Z,55.00
2019-03-24T06:31:08.885Z,54.90
2019-03-24T06:33:40.825Z,55.00
2019-03-24T06:36:13.157Z,55.10
2019-03-24T06:38:45.241Z,55.10
2019-03-24T06:41:17.482Z,55.10
2019-03-24T06:43:49.505Z,55.00
2019-03-24T06:46:22.344Z,55.00
2019-03-24T06:48:54.565Z,55.10
2019-03-24T06:51:26.593Z,55.00
2019-03-24T06:53:58.509Z,55.00
2019-03-24T06:56:30.498Z,54.90
2019-03-24T06:59:02.428Z,54.80
2019-03-24T07:01:34.557Z,54.80
2019-03-24T07:04:06.608Z,54.70
2019-03-24T07:06:39.622Z,54.60
2019-03-24T07:09:11.684Z,54.60
2019-03-24T07:11:43.668Z,54.50
2019-03-24T07:14:15.712Z,54.60
2019-03-24T07:16:47.708Z,54.60
2019-03-24T07:19:19.592Z,54.50
2019-03-24T07:21:51.552Z,54.40
2019-03-24T07:24:24.103Z,54.30
2019-03-24T07:26:56.202Z,54.30
2019-03-24T07:29:28.253Z,54.30
2019-03-24T07:32:00.256Z,54.30
2019-03-24T07:34:32.254Z,54.20
2019-03-24T07:37:04.353Z,54.10
2019-03-24T07:39:38.270Z,54.10
2019-03-24T07:42:10.255Z,54.10
2019-03-24T07:44:42.279Z,54.10
2019-03-24T07:47:14.856Z,54.20
2019-03-24T07:49:47.130Z,54.40
2019-03-24T07:52:19.873Z,54.40
2019-03-24T07:54:52.019Z,54.30
2019-03-24T07:57:24.140Z,54.20
2019-03-24T07:59:56.357Z,54.10
2019-03-24T08:02:28.728Z,54.10
2019-03-24T08:05:00.677Z,54.20
2019-03-24T08:07:32.897Z,53.90
2019-03-24T08:10:05.763Z,53.80
2019-03-24T08:12:38.046Z,53.50
2019-03-24T08:15:11.205Z,53.30
2019-03-24T08:17:43.313Z,53.60
2019-03-24T08:20:15.392Z,53.60
2019-03-24T08:22:47.420Z,53.70
2019-03-24T08:25:19.492Z,53.20
2019-03-24T08:27:52.539Z,52.70
2019-03-24T08:30:32.369Z,52.30
2019-03-24T08:33:06.085Z,51.80
2019-03-24T08:35:38.109Z,51.50
2019-03-24T08:38:10.200Z,51.20
2019-03-24T08:40:42.255Z,50.80
2019-03-24T08:43:14.228Z,50.30
2019-03-24T08:45:46.214Z,50.20
2019-03-24T08:48:18.457Z,50.10
2019-03-24T08:50:51.498Z,50.30
2019-03-24T08:53:23.469Z,50.10
2019-03-24T08:55:55.546Z,49.90
2019-03-24T08:58:27.604Z,50.00
2019-03-24T09:00:59.516Z,50.10
2019-03-24T09:03:32.774Z,49.90
2019-03-24T09:06:06.120Z,49.80
2019-03-24T09:08:38.124Z,49.90
2019-03-24T09:11:10.144Z,49.90
2019-03-24T09:13:42.249Z,49.90
2019-03-24T09:16:14.162Z,50.40
2019-03-24T09:18:52.619Z,50.70
2019-03-24T09:21:19.837Z,50.60
2019-03-24T09:23:51.824Z,50.60
2019-03-24T09:26:24.241Z,50.00
2019-03-24T09:28:56.437Z,49.50
2019-03-24T09:31:28.530Z,49.20
2019-03-24T09:34:00.566Z,49.20
2019-03-24T09:36:32.587Z,48.60
2019-03-24T09:39:06.434Z,48.30
2019-03-24T09:41:38.437Z,47.80
2019-03-24T09:44:10.462Z,47.50
2019-03-24T09:46:42.473Z,47.50
2019-03-24T09:49:14.411Z,46.90
2019-03-24T09:51:47.092Z,47.00
2019-03-24T09:54:19.275Z,46.90
2019-03-24T09:56:51.820Z,46.80
2019-03-24T09:59:24.018Z,47.00
2019-03-24T10:01:56.414Z,46.90
2019-03-24T10:04:29.390Z,47.00
2019-03-24T10:07:01.617Z,46.90
2019-03-24T10:09:33.629Z,47.20
2019-03-24T10:12:05.838Z,47.10
2019-03-24T10:14:37.706Z,46.90
2019-03-24T10:17:09.828Z,46.80
2019-03-24T10:19:41.828Z,46.50
2019-03-24T10:22:13.870Z,46.40
2019-03-24T10:24:45.838Z,46.20
2019-03-24T10:27:17.942Z,46.10
2019-03-24T10:29:50.064Z,46.10
2019-03-24T10:32:22.601Z,45.50
2019-03-24T10:34:54.497Z,45.00
2019-03-24T10:37:26.431Z,45.00
2019-03-24T10:39:58.362Z,44.90
2019-03-24T10:42:30.393Z,44.30
2019-03-24T10:45:02.300Z,44.80
2019-03-24T10:47:34.304Z,45.30
2019-03-24T10:50:08.060Z,45.00
2019-03-24T10:52:40.250Z,44.80
2019-03-24T10:55:12.721Z,44.70
2019-03-24T10:57:44.690Z,44.50
2019-03-24T11:00:31.106Z,43.70
2019-03-24T11:03:03.173Z,43.50
2019-03-24T11:05:35.348Z,43.30
2019-03-24T11:08:07.836Z,43.10
2019-03-24T11:10:40.956Z,43.50
2019-03-24T11:13:15.829Z,43.50
2019-03-24T11:15:49.037Z,43.70
2019-03-24T11:18:21.748Z,43.70
2019-03-24T11:20:53.772Z,44.00
2019-03-24T11:23:25.737Z,44.00
2019-03-24T11:25:57.960Z,43.90
2019-03-24T11:28:30.198Z,44.00
2019-03-24T11:31:02.762Z,44.00
2019-03-24T11:33:34.887Z,44.20
2019-03-24T11:36:06.900Z,44.30
2019-03-24T11:38:39.165Z,44.00
2019-03-24T11:41:11.185Z,44.00
2019-03-24T11:43:48.074Z,44.20
2019-03-24T11:46:20.709Z,44.20
2019-03-24T11:48:53.414Z,44.40
2019-03-24T11:51:25.347Z,44.50
2019-03-24T11:53:57.889Z,44.40
2019-03-24T11:56:31.204Z,44.60
2019-03-24T11:59:03.224Z,44.60
2019-03-24T12:01:38.416Z,44.60
2019-03-24T12:04:08.804Z,44.80
2019-03-24T12:06:40.786Z,44.50
2019-03-24T12:09:12.765Z,44.70
2019-03-24T12:11:44.908Z,44.70
2019-03-24T12:14:18.082Z,44.90
2019-03-24T12:16:50.097Z,45.00
2019-03-24T12:19:22.108Z,44.80
2019-03-24T12:21:54.417Z,44.50
2019-03-24T12:24:26.511Z,44.50
2019-03-24T12:26:58.557Z,44.50
2019-03-24T12:29:31.033Z,44.90
2019-03-24T12:32:03.289Z,44.10
2019-03-24T12:34:35.725Z,43.70
2019-03-24T12:37:08.006Z,43.70
2019-03-24T12:39:40.056Z,43.70
2019-03-24T12:42:12.114Z,43.70
2019-03-24T12:44:44.326Z,43.70
2019-03-24T12:47:16.453Z,43.50
2019-03-24T12:49:48.386Z,43.40
2019-03-24T12:52:20.648Z,43.50
2019-03-24T12:54:54.398Z,43.60
2019-03-24T12:57:28.902Z,43.60
2019-03-24T13:00:01.473Z,43.70
2019-03-24T13:02:35.117Z,43.80
2019-03-24T13:05:09.023Z,43.90
2019-03-24T13:07:41.396Z,44.10
2019-03-24T13:10:13.458Z,44.00
2019-03-24T13:12:45.700Z,44.30
2019-03-24T13:15:17.832Z,44.40
2019-03-24T13:17:49.723Z,44.30
2019-03-24T13:20:36.445Z,44.50
2019-03-24T13:22:55.470Z,44.60
2019-03-24T13:25:27.833Z,44.50
2019-03-24T13:27:59.911Z,44.70
2019-03-24T13:30:31.967Z,44.80
2019-03-24T13:33:04.053Z,44.80
2019-03-24T13:35:36.371Z,45.00
2019-03-24T13:38:08.456Z,45.10
2019-03-24T13:40:40.421Z,45.10
2019-03-24T13:43:12.538Z,45.30
2019-03-24T13:45:44.761Z,45.30
2019-03-24T13:48:16.834Z,45.20
2019-03-24T13:50:48.889Z,45.30
2019-03-24T13:53:20.869Z,45.30
2019-03-24T13:55:53.140Z,45.30
2019-03-24T13:58:25.242Z,45.30
2019-03-24T14:00:57.501Z,45.50
2019-03-24T14:03:29.736Z,45.50
2019-03-24T14:06:01.765Z,45.60
2019-03-24T14:08:33.956Z,45.70
2019-03-24T14:11:06.006Z,45.70
2019-03-24T14:13:39.062Z,45.90
2019-03-24T14:16:11.089Z,45.90
2019-03-24T14:18:43.116Z,45.90
2019-03-24T14:21:15.064Z,45.70
2019-03-24T14:23:47.179Z,45.50
2019-03-24T14:26:19.184Z,45.10
2019-03-24T14:28:51.312Z,45.10
2019-03-24T14:31:24.936Z,44.90
2019-03-24T14:33:56.982Z,44.90
2019-03-24T14:36:28.967Z,44.70
2019-03-24T14:39:01.142Z,44.60
2019-03-24T14:41:45.862Z,44.30
2019-03-24T14:44:18.243Z,44.20
2019-03-24T14:46:53.395Z,44.10
2019-03-24T14:49:25.750Z,44.10
2019-03-24T14:52:02.661Z,43.80
2019-03-24T14:54:36.197Z,43.70
2019-03-24T14:57:12.483Z,43.70
2019-03-24T14:59:46.629Z,43.70
2019-03-24T15:02:18.755Z,43.70
2019-03-24T15:04:50.672Z,43.70
2019-03-24T15:07:23.457Z,43.80
2019-03-24T15:09:58.458Z,44.00
2019-03-24T15:12:30.601Z,44.20
2019-03-24T15:15:02.858Z,44.20
2019-03-24T15:17:35.096Z,44.40
2019-03-24T15:20:07.919Z,44.50
2019-03-24T15:22:41.112Z,44.60
2019-03-24T15:25:13.126Z,44.70
2019-03-24T15:27:45.095Z,44.80
2019-03-24T15:30:17.192Z,44.90
2019-03-24T15:32:49.410Z,44.90
2019-03-24T15:35:21.539Z,45.00
2019-03-24T15:37:53.638Z,45.10
2019-03-24T15:40:25.652Z,45.20
2019-03-24T15:43:02.860Z,45.50
2019-03-24T15:45:36.619Z,45.50
2019-03-24T15:48:09.829Z,45.70
2019-03-24T15:50:41.783Z,46.00
2019-03-24T15:53:13.845Z,46.10
2019-03-24T15:55:45.836Z,46.30
2019-03-24T15:58:17.926Z,46.30
2019-03-24T16:00:51.034Z,46.50
2019-03-24T16:03:23.107Z,46.60
2019-03-24T16:05:56.454Z,46.80
2019-03-24T16:08:28.602Z,46.90
2019-03-24T16:11:00.804Z,47.00
2019-03-24T16:13:36.013Z,47.00
2019-03-24T16:16:08.342Z,47.10
2019-03-24T16:18:43.729Z,47.10
2019-03-24T16:21:15.796Z,47.40
2019-03-24T16:23:48.845Z,47.50
2019-03-24T16:26:21.030Z,47.40
2019-03-24T16:28:53.060Z,47.60
2019-03-24T16:31:25.218Z,47.60
2019-03-24T16:34:05.338Z,47.70
2019-03-24T16:36:36.632Z,47.80
2019-03-24T16:39:09.354Z,48.00
2019-03-24T16:41:47.041Z,47.90
2019-03-24T16:44:19.072Z,47.90
2019-03-24T16:46:53.945Z,47.90
2019-03-24T16:49:27.442Z,47.90
2019-03-24T16:51:59.832Z,48.00
2019-03-24T16:54:34.849Z,48.10
2019-03-24T16:57:12.150Z,48.10
2019-03-24T16:59:44.681Z,48.20
2019-03-24T17:02:21.399Z,48.10
2019-03-24T17:05:04.480Z,48.20
2019-03-24T17:07:39.241Z,48.20
2019-03-24T17:10:13.853Z,48.50
2019-03-24T17:12:51.694Z,48.70
2019-03-24T17:15:29.809Z,48.70
2019-03-24T17:18:07.701Z,48.90
2019-03-24T17:20:42.227Z,48.90
2019-03-24T17:23:14.519Z,48.90
2019-03-24T17:25:47.073Z,49.10
2019-03-24T17:28:19.429Z,49.10
2019-03-24T17:30:52.331Z,49.10
2019-03-24T17:33:24.527Z,49.30
2019-03-24T17:35:57.537Z,49.40
2019-03-24T17:38:29.813Z,49.60
2019-03-24T17:41:01.932Z,49.50
2019-03-24T17:43:34.381Z,49.70
2019-03-24T17:46:06.485Z,49.90
2019-03-24T17:48:38.698Z,49.80
2019-03-24T17:51:11.010Z,49.90
2019-03-24T17:53:43.874Z,50.10
2019-03-24T17:56:16.124Z,50.10
2019-03-24T17:58:48.413Z,50.30
2019-03-24T18:01:21.288Z,50.20
2019-03-24T18:03:54.194Z,50.30
2019-03-24T18:06:26.361Z,50.50
2019-03-24T18:08:58.393Z,50.60
2019-03-24T18:11:31.239Z,50.80
2019-03-24T18:14:03.369Z,50.90
2019-03-24T18:16:35.615Z,51.00
2019-03-24T18:19:07.849Z,51.10
2019-03-24T18:21:40.222Z,51.30
2019-03-24T18:24:12.289Z,51.20
2019-03-24T18:26:45.627Z,51.20
2019-03-24T18:29:17.781Z,51.40
2019-03-24T18:31:50.003Z,51.40
2019-03-24T18:34:24.472Z,51.30
2019-03-24T18:36:56.781Z,51.30
2019-03-24T18:39:29.078Z,51.30
2019-03-24T18:42:01.740Z,51.50
2019-03-24T18:44:33.820Z,51.30
2019-03-24T18:47:05.938Z,51.30
2019-03-24T18:49:39.956Z,51.30
2019-03-24T18:52:22.345Z,51.30
2019-03-24T18:54:45.692Z,51.40
2019-03-24T18:57:17.800Z,51.50
2019-03-24T18:59:49.780Z,51.50
2019-03-24T19:02:21.780Z,51.50
2019-03-24T19:04:54.816Z,51.50
2019-03-24T19:07:26.879Z,51.50
2019-03-24T19:09:59.028Z,51.60
2019-03-24T19:12:31.018Z,51.70
2019-03-24T19:15:03.225Z,51.80
2019-03-24T19:17:36.511Z,51.80
2019-03-24T19:20:09.666Z,51.90
2019-03-24T19:22:41.845Z,51.90
2019-03-24T19:25:14.120Z,51.90
2019-03-24T19:27:46.221Z,52.00
2019-03-24T19:30:20.122Z,52.00
2019-03-24T19:32:52.324Z,51.90
2019-03-24T19:35:24.449Z,52.10
2019-03-24T19:37:59.402Z,52.10
2019-03-24T19:40:32.183Z,52.10
2019-03-24T19:43:04.484Z,52.20
2019-03-24T19:45:36.627Z,52.20
2019-03-24T19:48:08.708Z,52.40
2019-03-24T19:50:40.669Z,52.30
2019-03-24T19:53:12.805Z,52.40
2019-03-24T19:55:44.770Z,52.50
2019-03-24T19:58:16.874Z,52.50
2019-03-24T20:00:49.093Z,52.60
2019-03-24T20:03:21.463Z,52.70
2019-03-24T20:05:54.305Z,52.80
2019-03-24T20:08:26.618Z,53.60
2019-03-24T20:10:58.584Z,53.00
2019-03-24T20:13:30.718Z,53.10
2019-03-24T20:16:03.044Z,53.20
2019-03-24T20:18:34.960Z,53.20
2019-03-24T20:21:07.021Z,53.20
2019-03-24T20:23:39.620Z,53.20
2019-03-24T20:26:11.822Z,53.30
2019-03-24T20:28:53.940Z,53.30
2019-03-24T20:31:30.603Z,53.30
2019-03-24T20:34:02.943Z,53.40
2019-03-24T20:36:35.413Z,53.30
2019-03-24T20:39:09.566Z,53.40
2019-03-24T20:41:41.992Z,53.40
2019-03-24T20:44:14.602Z,53.40
2019-03-24T20:46:47.564Z,53.40
2019-03-24T20:49:19.798Z,53.50
2019-03-24T20:51:53.136Z,53.50
2019-03-24T20:54:26.290Z,53.40
2019-03-24T20:56:58.528Z,53.40
2019-03-24T20:59:33.520Z,54.00
2019-03-24T21:02:06.282Z,53.50
2019-03-24T21:04:39.103Z,53.40
2019-03-24T21:07:12.185Z,53.60
2019-03-24T21:09:48.874Z,53.60
2019-03-24T21:12:28.691Z,53.70
2019-03-24T21:15:11.657Z,54.20
2019-03-24T21:17:44.949Z,53.70
2019-03-24T21:20:18.707Z,53.80
2019-03-24T21:22:51.337Z,53.90
2019-03-24T21:25:25.856Z,53.90
2019-03-24T21:28:02.217Z,53.90
2019-03-24T21:30:42.233Z,54.00
2019-03-24T21:33:15.135Z,54.10
2019-03-24T21:35:50.596Z,54.10
2019-03-24T21:38:32.276Z,54.30
2019-03-24T21:41:06.925Z,54.30
2019-03-24T21:43:40.567Z,54.50
2019-03-24T21:46:15.879Z,54.50
2019-03-24T21:48:53.621Z,54.50
2019-03-24T21:51:30.886Z,54.60
2019-03-24T21:54:06.149Z,54.70
2019-03-24T21:56:38.502Z,54.70
2019-03-24T21:59:11.464Z,54.80
2019-03-24T22:01:51.390Z,54.90
2019-03-24T22:04:25.326Z,54.40
2019-03-24T22:06:57.869Z,54.90
2019-03-24T22:09:30.549Z,55.00
2019-03-24T22:12:05.755Z,55.00
2019-03-24T22:14:38.198Z,55.00
2019-03-24T22:17:10.335Z,55.10
2019-03-24T22:19:42.331Z,55.10
2019-03-24T22:22:15.146Z,55.20
2019-03-24T22:24:48.376Z,55.20
2019-03-24T22:27:20.382Z,55.30
2019-03-24T22:29:52.257Z,55.20
2019-03-24T22:32:24.270Z,55.30
2019-03-24T22:34:56.525Z,55.40
2019-03-24T22:37:28.910Z,55.40
2019-03-24T22:40:00.869Z,55.50
2019-03-24T22:42:33.588Z,55.50
2019-03-24T22:45:06.771Z,55.40
2019-03-24T22:47:38.970Z,55.40
2019-03-24T22:50:11.325Z,55.50
2019-03-24T22:52:43.436Z,55.50
2019-03-24T22:55:15.490Z,55.60
2019-03-24T22:57:48.461Z,55.70
2019-03-24T23:00:38.525Z,55.80
2019-03-24T23:03:12.271Z,56.00
2019-03-24T23:05:44.304Z,56.10
2019-03-24T23:08:16.318Z,56.20
2019-03-24T23:10:48.451Z,56.20
2019-03-24T23:13:20.437Z,56.20
2019-03-24T23:15:52.291Z,56.20
2019-03-24T23:18:24.220Z,56.20
2019-03-24T23:20:56.428Z,56.20
2019-03-24T23:23:28.590Z,56.20
2019-03-24T23:26:00.626Z,56.30
2019-03-24T23:28:32.613Z,56.20
2019-03-24T23:31:04.618Z,56.20
2019-03-24T23:33:36.718Z,56.20
2019-03-24T23:36:08.721Z,56.10
2019-03-24T23:38:40.858Z,56.10
2019-03-24T23:41:12.851Z,56.10
2019-03-24T23:43:44.878Z,56.00
2019-03-24T23:46:17.243Z,56.00
2019-03-24T23:48:49.300Z,56.00
2019-03-24T23:51:21.438Z,56.00
2019-03-24T23:53:53.559Z,56.00
2019-03-24T23:56:25.450Z,56.00
2019-03-24T23:58:57.527Z,56.10
